Arcadia, CA (91006)

5:20 AM PST on February 14, 2016 (GMT -0800)
Route 666 Monrovia | | Change Station
CLOSE
Current Station
Personal Weather Station
Location: Monrovia, CA
Elevation: 462 ft
Nearby Weather Stations

Elev 462 ft 34.14 °N, 118.01 °W | Updated 13 seconds ago

Clear
Clear
48.0 °F
Feels Like 48 °F
N
3.0
Wind Variable Wind from NNW
Gusts 3.0 mph

Today
High -- | Low -- °F
--% Chance of Precip.
Yesterday
High -- | Low -- °F
Precip. -- in
Pressure 30.04 in
Visibility 3.0 miles
Clouds Clear
Windchill 48 °F
Dew Point 33 °F
Humidity 56%
Rainfall 0.00 in
Snow Depth Not available.
6:38 AM 5:34 PM
Waxing Crescent, 41% visible
SPECI KCQT 141257Z AUTO 00000KT 3SM BR CLR 09/08 A3004 RMK AO2 T00940083
Pressure 30.04 in
Visibility 3.0 miles
Clouds Clear
Windchill 48 °F
Dew Point 33 °F
Humidity 56%
Rainfall 0.00 in
Snow Depth Not available.
6:38 AM 5:34 PM
Waxing Crescent, 41% visible
SPECI KCQT 141257Z AUTO 00000KT 3SM BR CLR 09/08 A3004 RMK AO2 T00940083

10-Day Weather Forecast

Almanac

Astronomy

Feb. 14, 2016 Rise Set
Actual Time
Civil Twilight
Nautical Twilight
Astronomical Twilight
Moon
Length of Visible Light
Length of Day
Tomorrow will be .
, % of the Moon is Illuminated

Today's Extremes

State Highs State Lows

Community

WunderPhotos

Upload Photos

1,892,783 photos uploaded!

WunderBlog® & News

Nearby

Air Quality

  Air Quality AQ Index Pollutant
Not available.

Snow Depth

Station Depth Elevation

Earthquake Activity

City Distance Mag. Time & Date
Minimum magnitude displayed is 2.5.

Coastal Water Temperatures

Place Temperature

Stations

Nearby Weather Stations

Station Location Temp. Windchill Dew Point Humidity Wind Precip. Elev Updated Type
                   

Watches & Warnings

There are currently no watches in effect.